createdAt,value
2019-02-11T00:01:24.664Z,79.08
2019-02-11T00:03:59.544Z,79.30
2019-02-11T00:06:25.244Z,79.71
2019-02-11T00:08:54.682Z,79.38
2019-02-11T00:11:24.108Z,79.68
2019-02-11T00:13:53.545Z,79.93
2019-02-11T00:16:22.966Z,79.96
2019-02-11T00:18:52.405Z,80.34
2019-02-11T00:21:21.833Z,79.89
2019-02-11T00:23:51.310Z,79.83
2019-02-11T00:26:20.688Z,79.73
2019-02-11T00:28:50.701Z,79.48
2019-02-11T00:31:20.194Z,79.36
2019-02-11T00:33:49.671Z,79.66
2019-02-11T00:36:19.070Z,79.49
2019-02-11T00:38:48.502Z,79.70
2019-02-11T00:41:17.928Z,79.08
2019-02-11T00:43:47.372Z,79.33
2019-02-11T00:46:16.790Z,79.29
2019-02-11T00:48:46.230Z,79.18
2019-02-11T00:51:15.659Z,78.59
2019-02-11T00:53:45.101Z,78.05
2019-02-11T00:56:14.527Z,76.79
2019-02-11T00:58:43.963Z,76.07
2019-02-11T01:01:13.392Z,75.29
2019-02-11T01:03:42.823Z,75.34
2019-02-11T01:06:12.253Z,74.94
2019-02-11T01:08:41.691Z,73.12
2019-02-11T01:11:11.122Z,71.99
2019-02-11T01:13:40.566Z,71.75
2019-02-11T01:16:09.993Z,72.20
2019-02-11T01:18:39.431Z,72.26
2019-02-11T01:21:08.874Z,71.79
2019-02-11T01:23:38.309Z,71.43
2019-02-11T01:26:07.739Z,71.42
2019-02-11T01:28:37.181Z,70.93
2019-02-11T01:31:06.673Z,70.42
2019-02-11T01:33:36.109Z,70.18
2019-02-11T01:36:05.540Z,69.78
2019-02-11T01:38:34.973Z,69.86
2019-02-11T01:41:04.419Z,68.60
2019-02-11T01:43:36.035Z,68.21
2019-02-11T01:46:05.101Z,68.65
2019-02-11T01:48:34.526Z,68.45
2019-02-11T01:51:03.962Z,68.31
2019-02-11T01:53:33.391Z,68.47
2019-02-11T01:56:02.832Z,68.54
2019-02-11T01:58:32.265Z,68.67
2019-02-11T02:01:01.703Z,69.09
2019-02-11T02:03:31.133Z,69.27
2019-02-11T02:06:00.573Z,69.23
2019-02-11T02:08:29.995Z,69.35
2019-02-11T02:10:59.434Z,68.98
2019-02-11T02:13:28.858Z,69.21
2019-02-11T02:15:58.308Z,68.69
2019-02-11T02:18:27.730Z,68.27
2019-02-11T02:20:57.747Z,68.17
2019-02-11T02:23:27.176Z,68.38
2019-02-11T02:25:56.615Z,67.95
2019-02-11T02:28:26.043Z,67.63
2019-02-11T02:30:55.483Z,67.67
2019-02-11T02:33:24.905Z,68.35
2019-02-11T02:35:54.343Z,68.56
2019-02-11T02:38:23.767Z,68.42
2019-02-11T02:40:53.203Z,69.21
2019-02-11T02:43:22.637Z,69.14
2019-02-11T02:45:52.069Z,68.99
2019-02-11T02:48:21.505Z,69.93
2019-02-11T02:50:50.946Z,69.63
2019-02-11T02:53:20.374Z,70.06
2019-02-11T02:55:49.812Z,69.50
2019-02-11T02:58:19.241Z,68.57
2019-02-11T03:00:48.683Z,67.96
2019-02-11T03:03:18.103Z,68.13
2019-02-11T03:05:47.537Z,68.27
2019-02-11T03:08:16.962Z,67.95
2019-02-11T03:10:46.399Z,67.53
2019-02-11T03:13:16.643Z,67.41
2019-02-11T03:15:46.083Z,67.37
2019-02-11T03:18:15.512Z,66.75
2019-02-11T03:20:44.939Z,67.10
2019-02-11T03:23:14.361Z,67.83
2019-02-11T03:25:43.805Z,68.12
2019-02-11T03:28:13.225Z,68.21
2019-02-11T03:30:42.657Z,68.48
2019-02-11T03:33:12.100Z,69.48
2019-02-11T03:35:41.552Z,71.28
2019-02-11T03:38:10.972Z,72.31
2019-02-11T03:40:40.398Z,73.12
2019-02-11T03:43:09.832Z,74.00
2019-02-11T03:45:39.261Z,74.63
2019-02-11T03:48:08.698Z,75.87
2019-02-11T03:50:38.124Z,76.70
2019-02-11T03:53:07.631Z,76.97
2019-02-11T03:55:37.056Z,77.20
2019-02-11T03:58:06.489Z,77.26
2019-02-11T04:00:36.692Z,76.03
2019-02-11T04:03:06.193Z,75.41
2019-02-11T04:05:35.619Z,75.59
2019-02-11T04:08:05.050Z,76.23
2019-02-11T04:10:34.480Z,76.45
2019-02-11T04:13:03.917Z,77.30
2019-02-11T04:15:33.420Z,77.28
2019-02-11T04:18:02.939Z,77.16
2019-02-11T04:20:32.360Z,76.89
2019-02-11T04:23:01.791Z,77.13
2019-02-11T04:25:31.217Z,76.87
2019-02-11T04:28:00.650Z,77.42
2019-02-11T04:30:30.075Z,77.70
2019-02-11T04:32:59.519Z,77.45
2019-02-11T04:35:28.942Z,77.82
2019-02-11T04:37:58.380Z,77.09
2019-02-11T04:40:27.884Z,77.50
2019-02-11T04:42:57.321Z,77.23
2019-02-11T04:45:26.759Z,76.09
2019-02-11T04:47:56.193Z,76.20
2019-02-11T04:50:25.621Z,76.30
2019-02-11T04:52:56.940Z,75.76
2019-02-11T04:55:26.354Z,76.34
2019-02-11T04:57:55.789Z,76.59
2019-02-11T05:00:25.211Z,73.84
2019-02-11T05:02:54.655Z,74.22
2019-02-11T05:05:24.077Z,74.24
2019-02-11T05:07:53.514Z,73.91
2019-02-11T05:10:22.938Z,74.50
2019-02-11T05:12:52.370Z,74.20
2019-02-11T05:15:21.797Z,73.89
2019-02-11T05:17:51.235Z,74.24
2019-02-11T05:20:20.655Z,74.58
2019-02-11T05:22:50.093Z,74.51
2019-02-11T05:25:19.514Z,74.73
2019-02-11T05:27:48.949Z,75.00
2019-02-11T05:30:18.377Z,74.28
2019-02-11T05:32:47.826Z,74.73
2019-02-11T05:35:17.249Z,74.84
2019-02-11T05:37:46.688Z,75.09
2019-02-11T05:40:16.123Z,75.32
2019-02-11T05:42:45.562Z,74.81
2019-02-11T05:45:14.993Z,74.41
2019-02-11T05:47:44.428Z,74.66
2019-02-11T05:50:14.188Z,74.25
2019-02-11T05:52:43.614Z,73.86
2019-02-11T05:55:13.050Z,74.28
2019-02-11T05:57:42.492Z,72.78
2019-02-11T06:00:14.601Z,73.54
2019-02-11T06:02:44.024Z,72.77
2019-02-11T06:05:13.466Z,72.20
2019-02-11T06:07:42.892Z,70.66
2019-02-11T06:10:15.308Z,70.29
2019-02-11T06:12:44.744Z,68.94
2019-02-11T06:15:14.182Z,69.28
2019-02-11T06:17:43.611Z,68.87
2019-02-11T06:20:13.046Z,68.61
2019-02-11T06:22:42.472Z,68.49
2019-02-11T06:25:11.910Z,68.63
2019-02-11T06:27:41.330Z,67.99
2019-02-11T06:30:13.776Z,68.32
2019-02-11T06:32:43.202Z,67.72
2019-02-11T06:35:12.637Z,67.83
2019-02-11T06:37:42.735Z,66.21
2019-02-11T06:40:12.344Z,66.57
2019-02-11T06:42:41.783Z,67.18
2019-02-11T06:45:13.413Z,67.05
2019-02-11T06:47:42.960Z,66.27
2019-02-11T06:50:15.209Z,65.94
2019-02-11T06:52:44.627Z,66.07
2019-02-11T06:55:14.067Z,65.59
2019-02-11T06:57:43.494Z,65.77
2019-02-11T07:00:15.441Z,65.99
2019-02-11T07:02:44.866Z,66.27
2019-02-11T07:05:14.303Z,65.48
2019-02-11T07:07:43.727Z,65.77
2019-02-11T07:10:13.629Z,65.59
2019-02-11T07:12:43.052Z,65.78
2019-02-11T07:15:21.757Z,65.91
2019-02-11T07:17:45.949Z,66.09
2019-02-11T07:20:15.388Z,66.09
2019-02-11T07:22:44.809Z,66.07
2019-02-11T07:25:14.318Z,65.96
2019-02-11T07:27:43.747Z,66.42
2019-02-11T07:30:14.328Z,67.11
2019-02-11T07:32:43.755Z,67.60
2019-02-11T07:35:13.198Z,68.20
2019-02-11T07:37:42.633Z,68.42
2019-02-11T07:40:13.037Z,68.07
2019-02-11T07:42:44.111Z,67.65
2019-02-11T07:45:15.187Z,67.69
2019-02-11T07:47:44.612Z,67.78
2019-02-11T07:50:14.116Z,67.88
2019-02-11T07:52:43.539Z,67.78
2019-02-11T07:55:13.040Z,67.18
2019-02-11T07:57:42.471Z,68.18
2019-02-11T08:00:12.047Z,67.39
2019-02-11T08:02:41.475Z,67.31
2019-02-11T08:05:10.910Z,67.15
2019-02-11T08:07:40.336Z,65.77
2019-02-11T08:10:09.950Z,66.10
2019-02-11T08:12:39.378Z,66.00
2019-02-11T08:15:10.067Z,65.85
2019-02-11T08:17:39.501Z,65.50
2019-02-11T08:20:09.841Z,65.81
2019-02-11T08:22:39.739Z,66.01
2019-02-11T08:25:09.252Z,65.70
2019-02-11T08:27:38.689Z,65.75
2019-02-11T08:30:11.133Z,65.12
2019-02-11T08:32:40.565Z,64.68
2019-02-11T08:35:10.887Z,63.93
2019-02-11T08:37:40.314Z,64.71
2019-02-11T08:40:10.893Z,64.60
2019-02-11T08:42:40.323Z,64.72
2019-02-11T08:45:11.306Z,64.37
2019-02-11T08:47:40.732Z,63.67
2019-02-11T08:50:10.782Z,64.24
2019-02-11T08:52:40.218Z,63.86
2019-02-11T08:55:09.996Z,63.58
2019-02-11T08:57:39.423Z,63.83
2019-02-11T09:00:12.943Z,64.09
2019-02-11T09:02:42.543Z,63.70
2019-02-11T09:05:11.987Z,63.62
2019-02-11T09:07:41.428Z,63.42
2019-02-11T09:10:12.654Z,63.34
2019-02-11T09:12:42.094Z,63.72
2019-02-11T09:15:13.511Z,62.06
2019-02-11T09:17:42.939Z,62.41
2019-02-11T09:20:12.679Z,62.50
2019-02-11T09:22:42.116Z,62.52
2019-02-11T09:25:12.086Z,62.26
2019-02-11T09:27:41.524Z,62.02
2019-02-11T09:30:16.806Z,61.63
2019-02-11T09:32:46.245Z,61.50
2019-02-11T09:35:15.677Z,60.91
2019-02-11T09:37:45.180Z,59.83
2019-02-11T09:40:16.550Z,59.93
2019-02-11T09:42:46.056Z,60.57
2019-02-11T09:45:19.862Z,59.98
2019-02-11T09:47:49.298Z,59.85
2019-02-11T09:50:26.190Z,60.06
2019-02-11T09:52:55.694Z,59.52
2019-02-11T09:55:28.443Z,59.44
2019-02-11T09:57:57.870Z,59.65
2019-02-11T10:00:27.638Z,59.08
2019-02-11T10:02:57.082Z,58.71
2019-02-11T10:05:26.511Z,59.21
2019-02-11T10:07:56.512Z,58.33
2019-02-11T10:10:25.942Z,57.80
2019-02-11T10:12:55.374Z,57.13
2019-02-11T10:15:24.876Z,57.54
2019-02-11T10:17:54.376Z,57.03
2019-02-11T10:20:23.887Z,57.22
2019-02-11T10:22:53.318Z,57.47
2019-02-11T10:25:29.021Z,57.31
2019-02-11T10:28:02.739Z,57.41
2019-02-11T10:30:32.162Z,57.83
2019-02-11T10:33:01.600Z,57.73
2019-02-11T10:35:31.024Z,57.92
2019-02-11T10:38:00.471Z,57.83
2019-02-11T10:40:29.898Z,57.62
2019-02-11T10:42:59.339Z,56.11
2019-02-11T10:45:36.433Z,56.07
2019-02-11T10:48:00.010Z,55.90
2019-02-11T10:50:29.436Z,56.35
2019-02-11T10:52:58.870Z,56.54
2019-02-11T10:55:28.302Z,57.02
2019-02-11T10:57:57.734Z,57.24
2019-02-11T11:00:28.001Z,57.83
2019-02-11T11:02:57.438Z,58.39
2019-02-11T11:05:26.865Z,57.81
2019-02-11T11:07:56.303Z,58.08
2019-02-11T11:10:38.180Z,57.36
2019-02-11T11:13:07.608Z,57.78
2019-02-11T11:15:37.044Z,58.39
2019-02-11T11:18:09.393Z,58.45
2019-02-11T11:20:39.093Z,58.15
2019-02-11T11:23:08.529Z,58.95
2019-02-11T11:25:37.967Z,57.40
2019-02-11T11:28:10.305Z,57.76
2019-02-11T11:30:39.997Z,57.77
2019-02-11T11:33:09.506Z,57.53
2019-02-11T11:35:39.007Z,57.16
2019-02-11T11:38:08.450Z,56.60
2019-02-11T11:40:37.883Z,55.96
2019-02-11T11:43:07.308Z,56.56
2019-02-11T11:45:36.888Z,56.39
2019-02-11T11:48:06.385Z,57.42
2019-02-11T11:50:35.895Z,57.72
2019-02-11T11:53:05.883Z,57.82
2019-02-11T11:55:35.404Z,57.26
2019-02-11T11:58:04.821Z,57.42
2019-02-11T12:00:35.608Z,56.85
2019-02-11T12:03:05.977Z,57.04
2019-02-11T12:05:35.652Z,57.84
2019-02-11T12:08:05.175Z,55.51
2019-02-11T12:10:35.069Z,55.60
2019-02-11T12:13:21.608Z,55.60
2019-02-11T12:15:35.867Z,56.35
2019-02-11T12:18:05.464Z,56.12
2019-02-11T12:20:34.891Z,56.41
2019-02-11T12:23:04.396Z,56.50
2019-02-11T12:25:33.835Z,57.01
2019-02-11T12:28:03.265Z,57.88
2019-02-11T12:30:32.706Z,58.14
2019-02-11T12:33:02.142Z,57.30
2019-02-11T12:35:31.610Z,57.21
2019-02-11T12:38:01.065Z,57.55
2019-02-11T12:40:30.524Z,57.74
2019-02-11T12:42:59.945Z,57.45
2019-02-11T12:45:29.404Z,56.56
2019-02-11T12:47:58.816Z,57.03
2019-02-11T12:50:28.253Z,56.72
2019-02-11T12:52:57.685Z,56.46
2019-02-11T12:55:27.113Z,56.58
2019-02-11T12:57:56.550Z,56.20
2019-02-11T13:00:26.278Z,55.52
2019-02-11T13:02:55.858Z,55.05
2019-02-11T13:05:43.174Z,54.28
2019-02-11T13:07:56.442Z,56.22
2019-02-11T13:10:25.887Z,55.67
2019-02-11T13:12:55.312Z,55.77
2019-02-11T13:15:57.374Z,55.53
2019-02-11T13:17:56.041Z,55.74
2019-02-11T13:20:25.542Z,56.29
2019-02-11T13:22:54.965Z,56.40
2019-02-11T13:25:24.406Z,55.97
2019-02-11T13:27:54.187Z,56.70
2019-02-11T13:30:26.760Z,54.06
2019-02-11T13:32:56.211Z,54.46
2019-02-11T13:35:25.670Z,53.96
2019-02-11T13:37:56.274Z,54.06
2019-02-11T13:40:26.068Z,54.01
2019-02-11T13:42:55.511Z,54.79
2019-02-11T13:45:25.037Z,55.48
2019-02-11T13:47:58.252Z,55.30
2019-02-11T13:50:27.571Z,55.34
2019-02-11T13:52:57.350Z,55.17
2019-02-11T13:55:30.565Z,55.30
2019-02-11T13:57:58.368Z,55.19
2019-02-11T14:00:30.092Z,55.93
2019-02-11T14:03:02.380Z,56.14
2019-02-11T14:05:32.469Z,56.88
2019-02-11T14:08:02.517Z,56.33
2019-02-11T14:10:32.059Z,56.78
2019-02-11T14:13:01.677Z,56.78
2019-02-11T14:15:31.350Z,57.45
2019-02-11T14:18:14.287Z,57.40
2019-02-11T14:20:41.666Z,57.79
2019-02-11T14:23:11.253Z,58.78
2019-02-11T14:25:45.962Z,59.33
2019-02-11T14:28:11.883Z,59.06
2019-02-11T14:30:41.322Z,58.57
2019-02-11T14:33:11.117Z,58.40
2019-02-11T14:35:40.582Z,58.82
2019-02-11T14:38:10.174Z,58.61
2019-02-11T14:40:39.674Z,58.51
2019-02-11T14:43:09.106Z,58.18
2019-02-11T14:45:38.546Z,58.28
2019-02-11T14:48:07.992Z,57.36
2019-02-11T14:50:37.416Z,57.33
2019-02-11T14:53:06.857Z,57.21
2019-02-11T14:55:36.288Z,56.24
2019-02-11T14:58:05.728Z,56.74
2019-02-11T15:00:35.144Z,56.91
2019-02-11T15:03:04.589Z,55.74
2019-02-11T15:05:34.017Z,55.41
2019-02-11T15:08:03.467Z,55.08
2019-02-11T15:10:32.890Z,55.64
2019-02-11T15:13:02.336Z,55.82
2019-02-11T15:15:31.764Z,54.97
2019-02-11T15:18:01.200Z,54.65
2019-02-11T15:20:30.625Z,54.83
2019-02-11T15:23:00.062Z,55.41
2019-02-11T15:25:29.494Z,54.74
2019-02-11T15:27:58.935Z,54.20
2019-02-11T15:30:28.363Z,53.85
2019-02-11T15:32:57.802Z,53.42
2019-02-11T15:35:27.222Z,52.06
2019-02-11T15:37:56.661Z,49.94
2019-02-11T15:40:26.099Z,37.41
2019-02-11T15:42:55.538Z,39.66
2019-02-11T15:45:24.967Z,46.06
2019-02-11T15:47:54.403Z,49.87
2019-02-11T15:50:23.833Z,50.36
2019-02-11T15:52:53.269Z,51.01
2019-02-11T15:55:22.696Z,51.78
2019-02-11T15:57:52.133Z,51.90
2019-02-11T16:00:23.574Z,52.51
2019-02-11T16:02:53.014Z,51.75
2019-02-11T16:05:22.439Z,52.05
2019-02-11T16:07:51.949Z,52.82
2019-02-11T16:10:27.373Z,53.36
2019-02-11T16:12:56.808Z,54.25
2019-02-11T16:15:26.234Z,55.04
2019-02-11T16:17:55.673Z,55.29
2019-02-11T16:20:25.088Z,55.62
2019-02-11T16:22:54.531Z,55.84
2019-02-11T16:25:24.789Z,55.61
2019-02-11T16:27:54.227Z,56.28
2019-02-11T16:30:23.653Z,56.70
2019-02-11T16:32:53.647Z,56.72
2019-02-11T16:35:23.073Z,56.73
2019-02-11T16:37:52.513Z,57.02
2019-02-11T16:40:28.957Z,57.50
2019-02-11T16:42:58.389Z,57.63
2019-02-11T16:45:27.812Z,58.01
2019-02-11T16:47:57.240Z,58.34
2019-02-11T16:50:26.677Z,58.76
2019-02-11T16:52:56.118Z,59.30
2019-02-11T16:55:25.541Z,59.64
2019-02-11T16:57:54.978Z,59.65
2019-02-11T17:00:24.412Z,59.66
2019-02-11T17:02:53.853Z,60.07
2019-02-11T17:05:23.282Z,59.83
2019-02-11T17:07:52.709Z,60.32
2019-02-11T17:10:22.141Z,60.46
2019-02-11T17:12:51.581Z,60.50
2019-02-11T17:15:21.747Z,60.99
2019-02-11T17:17:51.186Z,60.92
2019-02-11T17:20:20.616Z,61.29
2019-02-11T17:22:50.058Z,61.54
2019-02-11T17:25:19.482Z,61.77
2019-02-11T17:27:48.922Z,61.52
2019-02-11T17:30:34.736Z,61.48
2019-02-11T17:33:04.170Z,61.06
2019-02-11T17:35:33.603Z,61.09
2019-02-11T17:38:03.033Z,61.09
2019-02-11T17:40:32.458Z,61.45
2019-02-11T17:43:01.907Z,61.78
2019-02-11T17:45:52.805Z,61.88
2019-02-11T17:48:23.817Z,61.59
2019-02-11T17:50:53.238Z,61.90
2019-02-11T17:53:24.117Z,62.04
2019-02-11T17:55:53.541Z,61.98
2019-02-11T17:58:23.045Z,62.16
2019-02-11T18:00:54.113Z,62.36
2019-02-11T18:03:23.549Z,62.78
2019-02-11T18:05:52.975Z,63.07
2019-02-11T18:08:22.409Z,63.40
2019-02-11T18:10:51.904Z,63.28
2019-02-11T18:13:21.345Z,63.06
2019-02-11T18:15:50.768Z,63.07
2019-02-11T18:18:20.209Z,63.04
2019-02-11T18:20:49.635Z,62.83
2019-02-11T18:23:19.075Z,62.52
2019-02-11T18:25:48.499Z,62.27
2019-02-11T18:28:17.947Z,62.06
2019-02-11T18:30:47.375Z,61.98
2019-02-11T18:33:16.814Z,61.96
2019-02-11T18:35:46.244Z,62.16
2019-02-11T18:38:15.687Z,62.17
2019-02-11T18:40:45.109Z,62.53
2019-02-11T18:43:14.546Z,62.62
2019-02-11T18:45:43.982Z,62.80
2019-02-11T18:48:13.422Z,62.33
2019-02-11T18:50:42.864Z,62.76
2019-02-11T18:53:12.287Z,62.84
2019-02-11T18:55:44.169Z,62.63
2019-02-11T18:58:13.138Z,63.05
2019-02-11T19:00:42.636Z,63.28
2019-02-11T19:03:12.078Z,62.91
2019-02-11T19:05:41.504Z,63.16
2019-02-11T19:08:10.938Z,63.32
2019-02-11T19:10:40.367Z,63.52
2019-02-11T19:13:09.801Z,63.80
2019-02-11T19:15:39.223Z,63.76
2019-02-11T19:18:08.659Z,63.84
2019-02-11T19:20:38.091Z,63.82
2019-02-11T19:23:07.526Z,63.90
2019-02-11T19:25:36.953Z,64.32
2019-02-11T19:28:06.392Z,64.12
2019-02-11T19:30:35.818Z,64.08
2019-02-11T19:33:05.256Z,64.41
2019-02-11T19:35:34.679Z,64.66
2019-02-11T19:38:04.102Z,64.63
2019-02-11T19:40:33.714Z,64.47
2019-02-11T19:43:03.143Z,64.69
2019-02-11T19:45:32.575Z,64.61
2019-02-11T19:48:01.997Z,63.96
2019-02-11T19:50:31.438Z,64.33
2019-02-11T19:53:00.860Z,64.69
2019-02-11T19:55:30.296Z,64.51
2019-02-11T19:57:59.720Z,64.69
2019-02-11T20:00:29.159Z,64.64
2019-02-11T20:02:58.587Z,65.06
2019-02-11T20:05:28.020Z,65.52
2019-02-11T20:07:57.448Z,65.14
2019-02-11T20:10:26.880Z,65.44
2019-02-11T20:12:56.306Z,65.95
2019-02-11T20:15:31.353Z,65.45
2019-02-11T20:18:00.777Z,65.53
2019-02-11T20:20:30.214Z,65.58
2019-02-11T20:22:59.643Z,65.59
2019-02-11T20:25:29.077Z,65.41
2019-02-11T20:27:58.504Z,65.28
2019-02-11T20:30:32.310Z,65.14
2019-02-11T20:33:01.741Z,64.97
2019-02-11T20:35:31.183Z,65.32
2019-02-11T20:38:00.636Z,65.44
2019-02-11T20:40:30.796Z,65.14
2019-02-11T20:43:00.218Z,65.31
2019-02-11T20:45:30.408Z,65.20
2019-02-11T20:47:59.839Z,65.72
2019-02-11T20:50:29.280Z,65.70
2019-02-11T20:52:58.705Z,65.82
2019-02-11T20:55:28.145Z,65.38
2019-02-11T20:58:00.082Z,65.59
2019-02-11T21:00:29.525Z,65.46
2019-02-11T21:02:58.956Z,65.03
2019-02-11T21:05:28.386Z,64.68
2019-02-11T21:07:57.815Z,65.04
2019-02-11T21:10:27.523Z,64.59
2019-02-11T21:12:56.953Z,64.73
2019-02-11T21:15:26.393Z,64.86
2019-02-11T21:17:55.894Z,65.12
2019-02-11T21:20:39.081Z,65.39
2019-02-11T21:23:10.826Z,65.45
2019-02-11T21:25:40.264Z,65.72
2019-02-11T21:28:09.696Z,66.10
2019-02-11T21:30:39.134Z,66.00
2019-02-11T21:33:08.566Z,66.44
2019-02-11T21:35:37.999Z,66.93
2019-02-11T21:38:07.436Z,67.17
2019-02-11T21:40:36.860Z,67.37
2019-02-11T21:43:06.303Z,67.76
2019-02-11T21:45:35.732Z,67.80
2019-02-11T21:48:05.174Z,67.94
2019-02-11T21:50:34.604Z,68.42
2019-02-11T21:53:04.047Z,68.67
2019-02-11T21:55:33.479Z,68.54
2019-02-11T21:58:02.924Z,68.77
2019-02-11T22:00:33.739Z,68.78
2019-02-11T22:03:03.181Z,69.14
2019-02-11T22:05:32.612Z,68.77
2019-02-11T22:08:02.048Z,68.94
2019-02-11T22:10:31.481Z,69.60
2019-02-11T22:13:00.926Z,69.62
2019-02-11T22:15:30.349Z,69.81
2019-02-11T22:17:59.783Z,69.89
2019-02-11T22:20:34.563Z,70.02
2019-02-11T22:23:00.394Z,69.85
2019-02-11T22:25:29.827Z,69.93
2019-02-11T22:27:59.437Z,70.46
2019-02-11T22:30:28.870Z,71.14
2019-02-11T22:32:58.315Z,71.06
2019-02-11T22:35:27.754Z,71.09
2019-02-11T22:37:57.186Z,71.08
2019-02-11T22:40:26.612Z,71.20
2019-02-11T22:42:56.119Z,71.14
2019-02-11T22:45:28.260Z,70.63
2019-02-11T22:47:57.707Z,70.27
2019-02-11T22:50:27.139Z,70.69
2019-02-11T22:52:56.578Z,71.04
2019-02-11T22:55:26.011Z,71.93
2019-02-11T22:57:55.448Z,72.41
2019-02-11T23:00:46.486Z,73.07
2019-02-11T23:03:16.162Z,73.33
2019-02-11T23:05:45.733Z,74.12
2019-02-11T23:08:15.244Z,73.82
2019-02-11T23:10:44.745Z,73.77
2019-02-11T23:13:14.189Z,74.24
2019-02-11T23:15:43.619Z,73.93
2019-02-11T23:18:13.080Z,73.99
2019-02-11T23:20:42.510Z,74.26
2019-02-11T23:23:11.950Z,73.88
2019-02-11T23:25:41.382Z,74.40
2019-02-11T23:28:10.827Z,74.18
2019-02-11T23:30:40.259Z,74.18
2019-02-11T23:33:09.944Z,74.12
2019-02-11T23:35:39.377Z,74.03
2019-02-11T23:38:08.816Z,74.06
2019-02-11T23:40:38.250Z,74.00
2019-02-11T23:43:07.688Z,74.38
2019-02-11T23:45:37.120Z,74.15
2019-02-11T23:48:06.559Z,74.06
2019-02-11T23:50:35.990Z,74.29
2019-02-11T23:53:05.501Z,74.19
2019-02-11T23:55:34.923Z,73.93
2019-02-11T23:58:04.362Z,73.71
